»·PEaware :: N356HK KSBP-KSMX

N356HK :: KSBP-KSMX

FLIGHT INFORMATION

Flight Status: Arrived
Operator: Privately registered:
United States
More flights under this callsign
Pilot: Anonymous 23149 (23149)
Aircraft: CIRRUS SR-22
(SR22)
More flights by this aircraft type
Origin: KSBP San Luis Co Regl
United States
Destination: KSMX Santa Maria Pub/Capt Hancock
United States
More flights between these airports :: More routes between these airports
Route: +
File this flight plan on PilotEdge
Remarks:
Altitude:
(Current/Filed)
3,500ft
Speed:
(Current/Filed)
172kts
Departed: 26-Jan-19 12:03 PM
Arrived: 26-Jan-19 01:05 PM
Distance/Time
Traveled:
22nm/1:01
Distance/Time
To Go:
Arrived

Flight Plot

Page will automatically refresh every two minutes.


Map Options




Map Legend


Flown Route
Filed Route
Departure Airport
Arrival Airport
Navaid (VOR, NDB)
Fix

Horizontal Profiles

Position Reports

Time Latitude Longitude Heading Altitude Ground
Speed
26-Jan-19 11:46 35.238419 -120.639975 306 216ft 0kts
26-Jan-19 11:47 35.238419 -120.639975 306 216ft 0kts
26-Jan-19 11:48 35.238420 -120.639975 306 216ft 0kts
26-Jan-19 11:49 35.238420 -120.639977 306 216ft 0kts
26-Jan-19 11:50 35.238421 -120.639978 306 216ft 0kts
26-Jan-19 11:51 35.238422 -120.639979 306 216ft 0kts
26-Jan-19 11:52 35.238423 -120.639980 306 216ft 0kts
26-Jan-19 11:53 35.238423 -120.639981 306 216ft 0kts
26-Jan-19 11:54 35.238424 -120.639982 306 216ft 0kts
26-Jan-19 11:55 35.238255 -120.640252 213 216ft 8kts
26-Jan-19 11:56 35.235887 -120.636610 125 216ft 17kts
26-Jan-19 11:57 35.233347 -120.632077 172 216ft 4kts
26-Jan-19 11:58 35.233327 -120.632079 199 216ft 0kts
26-Jan-19 11:59 35.233324 -120.632080 199 216ft 0kts
26-Jan-19 12:00 35.233322 -120.632081 199 216ft 0kts
26-Jan-19 12:01 35.233238 -120.632646 217 216ft 0kts
26-Jan-19 12:02 35.239278 -120.644346 306 512ft 89kts
26-Jan-19 12:03 35.235588 -120.670031 213 1198ft 117kts
26-Jan-19 12:04 35.211841 -120.653831 124 1199ft 122kts
26-Jan-19 12:05 35.196587 -120.618214 111 1269ft 124kts
26-Jan-19 12:06 35.181119 -120.581327 122 1724ft 118kts
26-Jan-19 12:07 35.175006 -120.549451 28 2103ft 117kts
26-Jan-19 12:08 35.203088 -120.580223 303 1487ft 152kts
26-Jan-19 12:09 35.221046 -120.612677 303 838ft 95kts
26-Jan-19 12:10 35.235331 -120.637455 304 216ft 75kts
26-Jan-19 12:11 35.237788 -120.640652 92 216ft 0kts
26-Jan-19 12:12 35.238251 -120.639838 311 216ft 0kts
26-Jan-19 12:13 35.238251 -120.639840 303 216ft 0kts
26-Jan-19 12:14 35.238252 -120.639842 303 216ft 0kts
26-Jan-19 12:15 35.238257 -120.639852 302 216ft 0kts
26-Jan-19 12:16 35.238258 -120.639853 302 216ft 0kts
26-Jan-19 12:36 35.238419 -120.639975 306 216ft 0kts
26-Jan-19 12:37 35.238419 -120.639975 306 216ft 0kts
26-Jan-19 12:38 35.238420 -120.639975 306 216ft 0kts
26-Jan-19 12:39 35.238420 -120.639976 306 216ft 0kts
26-Jan-19 12:40 35.238420 -120.639976 306 216ft 0kts
26-Jan-19 12:41 35.238421 -120.639977 306 216ft 0kts
26-Jan-19 12:42 35.236701 -120.638036 124 216ft 16kts
26-Jan-19 12:43 35.234636 -120.634378 124 216ft 12kts
26-Jan-19 12:43 35.233339 -120.632086 237 216ft 0kts
26-Jan-19 12:44 35.233339 -120.632086 237 216ft 0kts
26-Jan-19 12:46 35.233339 -120.632086 237 216ft 0kts
26-Jan-19 12:47 35.233298 -120.632603 215 216ft 0kts
26-Jan-19 12:48 35.240047 -120.645829 302 525ft 96kts
26-Jan-19 12:48 35.239478 -120.669710 210 1219ft 118kts
26-Jan-19 12:49 35.213103 -120.656921 124 1272ft 130kts
26-Jan-19 12:50 35.193939 -120.621073 126 1178ft 122kts
26-Jan-19 12:51 35.166497 -120.601340 154 1915ft 135kts
26-Jan-19 12:52 35.131342 -120.582105 155 2845ft 141kts
26-Jan-19 12:53 35.098722 -120.564556 155 3430ft 141kts
26-Jan-19 12:54 35.062787 -120.545262 155 3491ft 143kts
26-Jan-19 12:55 35.026051 -120.525537 155 3486ft 144kts
26-Jan-19 12:56 34.992338 -120.507472 155 2999ft 154kts
26-Jan-19 12:57 34.958704 -120.489121 147 1714ft 140kts
26-Jan-19 12:58 34.932112 -120.456606 131 991ft 133kts
26-Jan-19 12:59 34.908293 -120.425455 133 980ft 112kts
26-Jan-19 13:00 34.888667 -120.399052 129 1116ft 103kts
26-Jan-19 13:01 34.867002 -120.390817 226 1215ft 99kts
26-Jan-19 13:02 34.869150 -120.418022 316 1044ft 99kts
26-Jan-19 13:03 34.888628 -120.441047 315 472ft 92kts
26-Jan-19 13:04 34.899855 -120.453548 0 265ft 5kts
26-Jan-19 13:05 34.900869 -120.453356 78 265ft 0kts
26-Jan-19 13:06 34.900536 -120.452627 135 265ft 0kts
26-Jan-19 13:07 34.900627 -120.450578 85 265ft 6kts
26-Jan-19 13:08 34.900598 -120.450560 284 265ft 0kts

Navigation Log

Ident Type
Flight plan parsing failed, navigation log unavailable